Time;durP1;ratioP1;P1;durP2;ratioP2;P2;SDS_P1;SDS_P2;PMS_P1;PMS_P2;Temp;Humidity;BMP_temperature;BMP_pressure;BME280_temperature;BME280_humidity;BME280_pressure;Samples;Min_cycle;Max_cycle;Signal;HPM_P1;HPM_P2
2021/10/22 00:00:20;;;;;;;3.37;1.10;;;;;;;;;;5113171;28;20203;-90
2021/10/22 00:03:06;;;;;;;2.10;1.13;;;;;;;;;;5113648;28;20662;-90
2021/10/22 00:05:51;;;;;;;4.63;1.20;;;;;;;;;;5113137;28;20175;-89
2021/10/22 00:08:36;;;;;;;2.63;2.00;;;;;;;;;;5113162;28;20187;-90
2021/10/22 00:11:22;;;;;;;4.00;1.40;;;;;;;;;;5113920;28;20192;-89
2021/10/22 00:14:08;;;;;;;1.93;1.20;;;;;;;;;;5114095;28;20184;-90
2021/10/22 00:16:53;;;;;;;3.63;1.30;;;;;;;;;;5117462;28;20577;-90
2021/10/22 00:19:39;;;;;;;6.23;1.27;;;;;;;;;;5117671;28;20273;-89
2021/10/22 00:22:24;;;;;;;4.73;1.30;;;;;;;;;;5117809;28;20575;-90
2021/10/22 00:25:10;;;;;;;2.87;1.03;;;;;;;;;;5117980;28;20176;-90
2021/10/22 00:27:56;;;;;;;1.93;1.20;;;;;;;;;;5117608;28;20183;-89
2021/10/22 00:30:41;;;;;;;2.33;1.17;;;;;;;;;;5117095;28;20556;-90
2021/10/22 00:33:27;;;;;;;4.37;1.20;;;;;;;;;;5116967;28;20184;-90
2021/10/22 00:36:12;;;;;;;1.80;1.10;;;;;;;;;;5117348;28;20208;-89
2021/10/22 00:38:57;;;;;;;3.50;1.27;;;;;;;;;;5116963;28;20274;-90
2021/10/22 00:41:43;;;;;;;2.77;1.00;;;;;;;;;;5117050;28;20486;-90
2021/10/22 00:44:29;;;;;;;2.03;1.13;;;;;;;;;;5116884;28;20562;-90
2021/10/22 00:47:15;;;;;;;1.77;1.20;;;;;;;;;;5117001;28;20266;-90
2021/10/22 00:50:00;;;;;;;2.00;1.17;;;;;;;;;;5116901;28;20299;-90
2021/10/22 00:52:46;;;;;;;1.93;1.17;;;;;;;;;;5116398;28;20262;-90
2021/10/22 00:55:31;;;;;;;1.53;1.10;;;;;;;;;;5117174;28;20188;-90
2021/10/22 00:58:16;;;;;;;2.60;1.07;;;;;;;;;;5116513;28;20176;-91
2021/10/22 01:01:03;;;;;;;2.97;1.10;;;;;;;;;;5116851;28;20185;-90
2021/10/22 01:03:48;;;;;;;5.43;1.30;;;;;;;;;;5117127;28;20334;-90
2021/10/22 01:06:35;;;;;;;4.40;1.30;;;;;;;;;;5116864;28;20257;-90
2021/10/22 01:09:22;;;;;;;3.23;1.50;;;;;;;;;;5116750;28;20265;-90
2021/10/22 01:12:08;;;;;;;2.83;1.30;;;;;;;;;;5116520;28;20651;-90
2021/10/22 01:14:53;;;;;;;4.57;1.50;;;;;;;;;;5116321;28;20193;-90
2021/10/22 01:17:41;;;;;;;5.47;1.30;;;;;;;;;;5115996;28;20216;-90
2021/10/22 01:20:26;;;;;;;2.77;1.23;;;;;;;;;;5116260;28;20652;-89
2021/10/22 01:23:13;;;;;;;2.03;1.50;;;;;;;;;;5116279;28;20181;-89
2021/10/22 01:25:58;;;;;;;4.20;1.30;;;;;;;;;;5115762;28;20204;-89
2021/10/22 01:28:43;;;;;;;7.03;1.80;;;;;;;;;;5116298;28;20180;-89
2021/10/22 01:31:28;;;;;;;6.83;2.57;;;;;;;;;;5115876;28;20245;-90
2021/10/22 01:34:13;;;;;;;11.50;2.60;;;;;;;;;;5115647;28;20207;-89
2021/10/22 01:36:58;;;;;;;7.03;2.70;;;;;;;;;;5115484;28;20212;-89
2021/10/22 01:39:45;;;;;;;5.70;2.53;;;;;;;;;;5115560;28;20187;-88
2021/10/22 01:42:30;;;;;;;7.13;1.80;;;;;;;;;;5115937;28;20185;-89
2021/10/22 01:45:15;;;;;;;3.53;1.80;;;;;;;;;;5115584;28;20538;-89
2021/10/22 01:48:01;;;;;;;4.53;1.50;;;;;;;;;;5115577;28;20185;-89
2021/10/22 01:50:46;;;;;;;3.80;1.43;;;;;;;;;;5115357;28;20289;-89
2021/10/22 01:53:32;;;;;;;10.33;1.53;;;;;;;;;;5115201;28;20297;-89
2021/10/22 01:56:18;;;;;;;2.53;1.60;;;;;;;;;;5115401;28;20695;-89
2021/10/22 01:59:04;;;;;;;2.13;1.47;;;;;;;;;;5115542;28;20188;-90
2021/10/22 02:01:48;;;;;;;4.10;1.80;;;;;;;;;;5115069;28;20184;-90
2021/10/22 02:04:34;;;;;;;2.57;1.20;;;;;;;;;;5115389;28;20182;-89
2021/10/22 02:07:19;;;;;;;3.70;1.90;;;;;;;;;;5115369;28;20255;-89
2021/10/22 02:10:04;;;;;;;21.13;6.90;;;;;;;;;;5115108;28;20185;-89
2021/10/22 02:12:51;;;;;;;15.40;4.93;;;;;;;;;;5115468;28;20184;-89
2021/10/22 02:15:36;;;;;;;14.03;4.97;;;;;;;;;;5115528;28;20185;-89
2021/10/22 02:18:22;;;;;;;13.50;5.23;;;;;;;;;;5114583;28;20181;-90
2021/10/22 02:21:07;;;;;;;10.47;3.53;;;;;;;;;;5115210;28;20659;-90
2021/10/22 02:23:52;;;;;;;8.00;3.00;;;;;;;;;;5114858;28;20181;-90
2021/10/22 02:26:37;;;;;;;5.90;2.23;;;;;;;;;;5114873;28;20192;-89
2021/10/22 02:29:23;;;;;;;6.73;1.77;;;;;;;;;;5114539;28;20192;-89
2021/10/22 02:32:09;;;;;;;2.70;1.33;;;;;;;;;;5114813;28;20184;-89
2021/10/22 02:34:53;;;;;;;2.70;1.37;;;;;;;;;;5114535;28;20737;-89
2021/10/22 02:37:42;;;;;;;2.03;1.43;;;;;;;;;;5113372;28;20200;-88
2021/10/22 02:40:27;;;;;;;6.87;2.00;;;;;;;;;;5114141;28;20184;-88
2021/10/22 02:43:12;;;;;;;3.27;1.63;;;;;;;;;;5114364;28;20184;-88
2021/10/22 02:45:59;;;;;;;3.87;1.73;;;;;;;;;;5114347;28;20184;-89
2021/10/22 02:48:44;;;;;;;2.60;1.30;;;;;;;;;;5114284;28;20192;-89
2021/10/22 02:51:30;;;;;;;3.73;1.40;;;;;;;;;;5114296;28;20223;-89
2021/10/22 02:54:15;;;;;;;3.73;1.60;;;;;;;;;;5113760;28;20278;-89
2021/10/22 02:57:00;;;;;;;5.73;1.30;;;;;;;;;;5113862;28;20226;-88
2021/10/22 02:59:45;;;;;;;3.27;1.27;;;;;;;;;;5113926;28;20187;-89
2021/10/22 03:02:31;;;;;;;6.10;1.60;;;;;;;;;;5113847;28;20200;-88
2021/10/22 03:05:17;;;;;;;6.67;1.50;;;;;;;;;;5113912;28;20188;-89
2021/10/22 03:08:02;;;;;;;6.70;1.40;;;;;;;;;;5113743;28;20618;-89
2021/10/22 03:10:47;;;;;;;3.30;1.60;;;;;;;;;;5113520;28;20227;-89
2021/10/22 03:13:32;;;;;;;4.53;1.30;;;;;;;;;;5113667;28;20180;-89
2021/10/22 03:16:17;;;;;;;4.20;1.73;;;;;;;;;;5113462;28;20222;-89
2021/10/22 03:19:03;;;;;;;10.93;1.83;;;;;;;;;;5113548;28;20184;-88
2021/10/22 03:21:48;;;;;;;4.30;1.97;;;;;;;;;;5113265;28;20548;-89
2021/10/22 03:24:33;;;;;;;3.67;1.63;;;;;;;;;;5113366;28;20188;-89
2021/10/22 03:27:20;;;;;;;3.20;2.27;;;;;;;;;;5113165;28;20188;-88
2021/10/22 03:30:06;;;;;;;7.03;2.67;;;;;;;;;;5113606;28;20183;-89
2021/10/22 03:32:52;;;;;;;5.33;2.40;;;;;;;;;;5113284;28;20195;-89
2021/10/22 03:35:38;;;;;;;5.13;2.30;;;;;;;;;;5113166;28;20185;-88
2021/10/22 03:38:23;;;;;;;4.40;2.07;;;;;;;;;;5112766;28;20212;-89
2021/10/22 03:41:08;;;;;;;6.17;2.10;;;;;;;;;;5112771;28;20196;-89
2021/10/22 03:43:53;;;;;;;5.63;2.47;;;;;;;;;;5113237;28;20258;-89
2021/10/22 03:46:38;;;;;;;3.60;2.33;;;;;;;;;;5113047;28;20183;-89
2021/10/22 03:49:23;;;;;;;5.93;2.33;;;;;;;;;;5112705;28;20234;-90
2021/10/22 03:52:10;;;;;;;4.90;2.47;;;;;;;;;;5112709;28;20200;-91
2021/10/22 03:54:55;;;;;;;10.13;2.80;;;;;;;;;;5112966;28;20602;-89
2021/10/22 03:57:40;;;;;;;6.03;2.50;;;;;;;;;;5112383;28;20208;-89
2021/10/22 04:00:26;;;;;;;3.47;2.30;;;;;;;;;;5112354;28;20210;-90
2021/10/22 04:03:11;;;;;;;4.37;2.23;;;;;;;;;;5113040;28;20302;-91
2021/10/22 04:05:56;;;;;;;6.77;1.97;;;;;;;;;;5112413;28;20290;-90
2021/10/22 04:08:42;;;;;;;7.40;2.30;;;;;;;;;;5112320;28;20180;-90
2021/10/22 04:11:27;;;;;;;8.00;2.43;;;;;;;;;;5112363;28;20187;-92
2021/10/22 04:14:12;;;;;;;7.80;2.30;;;;;;;;;;5112495;28;20200;-89
2021/10/22 04:16:59;;;;;;;6.73;2.10;;;;;;;;;;5112354;28;20231;-90
2021/10/22 04:19:44;;;;;;;5.20;2.60;;;;;;;;;;5112028;28;20270;-87
2021/10/22 04:22:29;;;;;;;6.43;2.70;;;;;;;;;;5112020;28;20188;-88
2021/10/22 04:25:16;;;;;;;12.30;3.30;;;;;;;;;;5112087;28;20188;-88
2021/10/22 04:28:01;;;;;;;4.53;2.43;;;;;;;;;;5111955;28;20258;-88
2021/10/22 04:30:46;;;;;;;5.70;2.63;;;;;;;;;;5111743;28;20184;-88
2021/10/22 04:33:31;;;;;;;3.10;2.30;;;;;;;;;;5112289;28;20540;-89
2021/10/22 04:36:17;;;;;;;4.63;2.10;;;;;;;;;;5112014;28;20303;-88
2021/10/22 04:42:08;;;;;;;6.73;2.53;;;;;;;;;;5111599;28;20271;-87
2021/10/22 04:44:53;;;;;;;5.77;2.53;;;;;;;;;;5112951;28;20180;-89
2021/10/22 04:47:38;;;;;;;5.60;2.30;;;;;;;;;;5111992;28;20185;-87
2021/10/22 04:50:23;;;;;;;6.73;1.87;;;;;;;;;;5112508;28;20703;-88
2021/10/22 04:53:08;;;;;;;4.83;2.23;;;;;;;;;;5111438;28;20277;-86
2021/10/22 04:55:54;;;;;;;5.37;2.63;;;;;;;;;;5111243;28;20180;-87
2021/10/22 04:58:40;;;;;;;5.43;2.10;;;;;;;;;;5111646;28;20588;-87
2021/10/22 05:01:25;;;;;;;4.00;3.07;;;;;;;;;;5114080;28;20568;-86
2021/10/22 05:04:10;;;;;;;5.07;3.47;;;;;;;;;;5115676;28;20203;-89
2021/10/22 05:06:55;;;;;;;5.03;3.50;;;;;;;;;;5116061;28;20598;-89
2021/10/22 05:09:40;;;;;;;5.30;3.17;;;;;;;;;;5115524;28;20212;-89
2021/10/22 05:12:25;;;;;;;7.97;3.80;;;;;;;;;;5116028;28;20195;-87
2021/10/22 05:15:12;;;;;;;6.57;3.27;;;;;;;;;;5115213;28;20227;-86
2021/10/22 05:17:57;;;;;;;4.50;3.20;;;;;;;;;;5115278;28;20207;-86
2021/10/22 05:20:43;;;;;;;7.07;3.47;;;;;;;;;;5114942;28;20227;-85
2021/10/22 05:23:28;;;;;;;7.37;3.53;;;;;;;;;;5114871;28;20204;-87
2021/10/22 05:26:13;;;;;;;12.03;2.90;;;;;;;;;;5115190;28;20208;-86
2021/10/22 05:28:58;;;;;;;6.37;2.30;;;;;;;;;;5114980;28;20177;-85
2021/10/22 05:31:44;;;;;;;3.20;1.93;;;;;;;;;;5115015;28;20314;-86
2021/10/22 05:34:30;;;;;;;4.80;2.43;;;;;;;;;;5114660;28;20184;-86
2021/10/22 05:37:15;;;;;;;5.27;2.10;;;;;;;;;;5114340;28;20255;-86
2021/10/22 05:40:00;;;;;;;7.43;2.30;;;;;;;;;;5114129;28;20644;-86
2021/10/22 05:42:45;;;;;;;4.43;2.20;;;;;;;;;;5114301;28;20191;-86
2021/10/22 05:45:30;;;;;;;3.57;2.60;;;;;;;;;;5114653;28;20188;-86
2021/10/22 05:48:16;;;;;;;4.90;2.53;;;;;;;;;;5114895;28;20519;-86
2021/10/22 05:51:02;;;;;;;9.77;4.23;;;;;;;;;;5114495;28;20227;-87
2021/10/22 05:53:47;;;;;;;36.47;11.13;;;;;;;;;;5114396;28;20781;-86
2021/10/22 05:56:32;;;;;;;85.47;21.17;;;;;;;;;;5114623;28;20199;-86
2021/10/22 05:59:17;;;;;;;50.57;12.30;;;;;;;;;;5114226;28;20208;-85
2021/10/22 06:02:02;;;;;;;20.13;6.07;;;;;;;;;;5113963;28;20183;-85
2021/10/22 06:04:48;;;;;;;13.20;3.10;;;;;;;;;;5114206;28;20319;-85
2021/10/22 06:07:34;;;;;;;11.33;3.40;;;;;;;;;;5114308;28;20713;-86
2021/10/22 06:10:19;;;;;;;5.30;2.30;;;;;;;;;;5114971;28;20184;-86
2021/10/22 06:13:04;;;;;;;4.80;2.13;;;;;;;;;;5114210;28;20200;-86
2021/10/22 06:15:49;;;;;;;4.77;2.13;;;;;;;;;;5114461;28;20269;-87
2021/10/22 06:18:37;;;;;;;8.00;2.70;;;;;;;;;;5114220;28;20230;-87
2021/10/22 06:21:27;;;;;;;5.40;1.83;;;;;;;;;;5114423;28;20184;-87
2021/10/22 06:24:12;;;;;;;6.47;2.00;;;;;;;;;;5114282;28;20208;-87
2021/10/22 06:26:57;;;;;;;5.10;2.07;;;;;;;;;;5114357;28;20227;-87
2021/10/22 06:29:42;;;;;;;7.37;1.80;;;;;;;;;;5114188;28;20663;-87
2021/10/22 06:32:28;;;;;;;5.83;1.87;;;;;;;;;;5114130;28;20546;-86
2021/10/22 06:35:13;;;;;;;5.17;2.00;;;;;;;;;;5114029;28;20191;-86
2021/10/22 06:38:00;;;;;;;4.60;2.30;;;;;;;;;;5113798;28;20570;-86
2021/10/22 06:40:44;;;;;;;7.37;2.13;;;;;;;;;;5113579;28;20511;-86
2021/10/22 06:43:30;;;;;;;4.70;1.97;;;;;;;;;;5113533;28;20188;-87
2021/10/22 06:46:16;;;;;;;7.73;2.00;;;;;;;;;;5113682;28;20659;-87
2021/10/22 06:49:01;;;;;;;9.80;2.57;;;;;;;;;;5114032;28;20185;-86
2021/10/22 06:51:46;;;;;;;6.40;2.00;;;;;;;;;;5113746;28;20350;-88
2021/10/22 06:54:33;;;;;;;8.77;2.20;;;;;;;;;;5114020;28;20846;-90
2021/10/22 06:57:18;;;;;;;6.70;2.60;;;;;;;;;;5113921;28;20197;-89
2021/10/22 07:00:04;;;;;;;7.27;2.00;;;;;;;;;;5113969;28;20211;-89
2021/10/22 07:02:50;;;;;;;5.73;1.90;;;;;;;;;;5113757;28;20680;-89
2021/10/22 07:05:48;;;;;;;5.97;2.00;;;;;;;;;;5114229;28;20555;-90
2021/10/22 07:08:32;;;;;;;6.07;1.90;;;;;;;;;;5113398;28;20656;-89
2021/10/22 07:11:19;;;;;;;8.70;2.40;;;;;;;;;;5113330;28;20184;-88
2021/10/22 07:14:07;;;;;;;4.90;1.90;;;;;;;;;;5113848;28;20184;-88
2021/10/22 07:16:52;;;;;;;7.57;2.17;;;;;;;;;;5113863;28;20664;-88
2021/10/22 07:19:37;;;;;;;5.43;1.90;;;;;;;;;;5113581;28;20209;-89
2021/10/22 07:22:30;;;;;;;4.50;2.00;;;;;;;;;;5113481;28;20191;-89
2021/10/22 07:25:15;;;;;;;7.67;2.20;;;;;;;;;;5113877;28;20188;-88
2021/10/22 07:28:07;;;;;;;9.83;1.80;;;;;;;;;;5113437;28;20189;-90
2021/10/22 07:30:53;;;;;;;10.23;2.00;;;;;;;;;;5113969;28;20601;-88
2021/10/22 07:33:39;;;;;;;3.70;1.90;;;;;;;;;;5113732;28;20189;-88
2021/10/22 07:36:24;;;;;;;3.77;1.73;;;;;;;;;;5114380;28;20311;-88
2021/10/22 07:39:10;;;;;;;7.53;2.43;;;;;;;;;;5114192;28;20208;-88
2021/10/22 07:41:55;;;;;;;6.03;1.83;;;;;;;;;;5113809;28;20180;-89
2021/10/22 07:44:45;;;;;;;5.37;2.27;;;;;;;;;;5113896;28;20188;-87
2021/10/22 07:47:30;;;;;;;7.00;2.10;;;;;;;;;;5112677;28;20679;-88
2021/10/22 07:50:18;;;;;;;5.67;2.20;;;;;;;;;;5113624;28;20723;-87
2021/10/22 07:53:05;;;;;;;10.30;2.60;;;;;;;;;;5113303;28;20228;-86
2021/10/22 07:55:50;;;;;;;9.40;1.90;;;;;;;;;;5113393;28;20184;-86
2021/10/22 07:58:35;;;;;;;5.90;2.10;;;;;;;;;;5113305;28;20230;-86
2021/10/22 08:01:21;;;;;;;6.80;2.10;;;;;;;;;;5113559;28;20192;-86
2021/10/22 08:04:07;;;;;;;5.80;2.10;;;;;;;;;;5113965;28;20549;-86
2021/10/22 08:06:52;;;;;;;7.87;2.30;;;;;;;;;;5113600;28;20180;-86
2021/10/22 08:09:37;;;;;;;6.07;1.93;;;;;;;;;;5113469;28;20744;-86
2021/10/22 08:12:22;;;;;;;6.93;1.97;;;;;;;;;;5113393;28;20188;-86
2021/10/22 08:15:09;;;;;;;7.83;2.07;;;;;;;;;;5113424;28;20188;-85
2021/10/22 08:17:57;;;;;;;4.87;2.50;;;;;;;;;;5113488;28;20672;-86
2021/10/22 08:20:49;;;;;;;7.40;2.43;;;;;;;;;;5113383;28;20266;-86
2021/10/22 08:23:37;;;;;;;5.80;2.37;;;;;;;;;;5113317;28;20184;-87
2021/10/22 08:26:22;;;;;;;5.77;2.20;;;;;;;;;;5113226;28;20196;-86
2021/10/22 08:29:07;;;;;;;10.77;2.93;;;;;;;;;;5113062;28;20258;-86
2021/10/22 08:31:52;;;;;;;6.50;2.13;;;;;;;;;;5113260;28;20280;-87
2021/10/22 08:34:40;;;;;;;10.30;2.30;;;;;;;;;;5113445;28;20540;-85
2021/10/22 08:37:26;;;;;;;5.73;2.60;;;;;;;;;;5116421;28;20295;-85
2021/10/22 08:40:13;;;;;;;6.33;2.40;;;;;;;;;;5116967;28;20228;-85
2021/10/22 08:42:58;;;;;;;3.20;2.23;;;;;;;;;;5117060;28;20318;-86
2021/10/22 08:45:45;;;;;;;4.47;2.27;;;;;;;;;;5117201;28;20192;-87
2021/10/22 08:48:31;;;;;;;6.97;2.27;;;;;;;;;;5117128;28;20181;-86
2021/10/22 08:51:19;;;;;;;9.63;2.17;;;;;;;;;;5117041;28;20259;-86
2021/10/22 08:54:04;;;;;;;5.73;2.43;;;;;;;;;;5116751;28;20235;-85
2021/10/22 08:56:49;;;;;;;5.87;1.90;;;;;;;;;;5116820;28;20238;-86
2021/10/22 08:59:34;;;;;;;9.10;2.63;;;;;;;;;;5116497;28;20220;-87
2021/10/22 09:02:21;;;;;;;7.37;2.10;;;;;;;;;;5116589;28;20553;-87
2021/10/22 09:05:11;;;;;;;5.47;1.90;;;;;;;;;;5115802;28;20207;-86
2021/10/22 09:08:02;;;;;;;7.13;2.20;;;;;;;;;;5116799;28;20188;-86
2021/10/22 09:10:48;;;;;;;7.80;2.80;;;;;;;;;;5116404;28;20180;-86
2021/10/22 09:13:34;;;;;;;11.00;2.03;;;;;;;;;;5116725;28;20188;-86
2021/10/22 09:16:20;;;;;;;7.03;2.73;;;;;;;;;;5116368;28;20555;-86
2021/10/22 09:19:06;;;;;;;11.47;2.43;;;;;;;;;;5116312;28;20278;-86
2021/10/22 09:21:51;;;;;;;3.40;1.60;;;;;;;;;;5116498;28;20544;-87
2021/10/22 09:24:37;;;;;;;3.87;2.07;;;;;;;;;;5116207;28;20555;-87
2021/10/22 09:27:38;;;;;;;4.87;2.00;;;;;;;;;;5116109;28;20192;-88
2021/10/22 09:30:31;;;;;;;4.03;1.80;;;;;;;;;;5116065;28;20238;-86
2021/10/22 09:33:17;;;;;;;3.53;1.80;;;;;;;;;;5115579;28;20231;-84
2021/10/22 09:36:03;;;;;;;6.23;1.93;;;;;;;;;;5115432;28;20183;-85
2021/10/22 09:38:49;;;;;;;4.00;1.70;;;;;;;;;;5115279;28;20230;-85
2021/10/22 09:41:36;;;;;;;5.83;1.97;;;;;;;;;;5115444;28;20306;-84
2021/10/22 09:44:22;;;;;;;5.90;2.33;;;;;;;;;;5115009;28;20303;-86
2021/10/22 09:47:14;;;;;;;4.30;1.90;;;;;;;;;;5114693;28;20235;-85
2021/10/22 09:50:09;;;;;;;7.50;2.13;;;;;;;;;;5114730;28;20220;-88
2021/10/22 09:52:57;;;;;;;2.87;1.57;;;;;;;;;;5113933;28;20239;-84
2021/10/22 09:55:42;;;;;;;7.60;1.93;;;;;;;;;;5115112;28;20546;-84
2021/10/22 09:58:29;;;;;;;4.93;1.80;;;;;;;;;;5115383;28;20181;-84
2021/10/22 10:01:17;;;;;;;4.87;1.63;;;;;;;;;;5115093;28;20208;-85
2021/10/22 10:04:02;;;;;;;3.53;1.40;;;;;;;;;;5114022;28;20204;-84
2021/10/22 10:06:51;;;;;;;2.77;1.60;;;;;;;;;;5115071;28;20631;-83
2021/10/22 10:09:39;;;;;;;2.97;1.57;;;;;;;;;;5115247;28;20183;-83
2021/10/22 10:12:24;;;;;;;6.73;2.07;;;;;;;;;;5115090;28;20192;-85
2021/10/22 10:15:12;;;;;;;5.33;1.90;;;;;;;;;;5114556;28;20234;-87
2021/10/22 10:18:00;;;;;;;3.60;1.80;;;;;;;;;;5114646;28;20303;-90
2021/10/22 10:20:48;;;;;;;7.90;2.13;;;;;;;;;;5114485;28;20201;-86
2021/10/22 10:23:34;;;;;;;4.60;1.57;;;;;;;;;;5114415;28;20227;-86
2021/10/22 10:26:24;;;;;;;5.07;1.60;;;;;;;;;;5114435;28;20258;-86
2021/10/22 10:29:11;;;;;;;2.57;1.47;;;;;;;;;;5114328;28;20227;-90
2021/10/22 10:32:01;;;;;;;4.00;1.70;;;;;;;;;;5114014;28;20181;-86
2021/10/22 10:34:47;;;;;;;7.37;1.70;;;;;;;;;;5113950;28;20184;-87
2021/10/22 10:37:35;;;;;;;5.17;1.60;;;;;;;;;;5097653;28;20560;-90
2021/10/22 10:40:24;;;;;;;5.63;1.80;;;;;;;;;;5093083;28;20708;-89
2021/10/22 10:43:20;;;;;;;7.33;1.90;;;;;;;;;;5093061;28;20192;-85
2021/10/22 10:46:05;;;;;;;4.20;1.50;;;;;;;;;;5093158;28;20264;-84
2021/10/22 10:48:51;;;;;;;4.80;1.70;;;;;;;;;;5092968;28;20300;-86
2021/10/22 10:51:37;;;;;;;8.43;1.77;;;;;;;;;;5093145;28;20689;-85
2021/10/22 10:54:26;;;;;;;3.50;1.37;;;;;;;;;;5092527;28;20233;-85
2021/10/22 10:57:24;;;;;;;3.40;1.40;;;;;;;;;;5092662;28;20185;-82
2021/10/22 11:00:11;;;;;;;5.33;1.63;;;;;;;;;;5092745;28;20216;-85
2021/10/22 11:03:15;;;;;;;4.07;1.67;;;;;;;;;;5092879;28;20204;-84
2021/10/22 11:06:08;;;;;;;2.97;1.70;;;;;;;;;;5092409;28;20200;-86
2021/10/22 11:08:53;;;;;;;4.37;1.50;;;;;;;;;;5092579;28;20189;-84
2021/10/22 11:11:39;;;;;;;3.53;1.57;;;;;;;;;;5092538;28;20188;-85
2021/10/22 11:14:24;;;;;;;5.47;1.80;;;;;;;;;;5092907;28;20713;-84
2021/10/22 11:17:10;;;;;;;5.70;1.60;;;;;;;;;;5092516;28;20193;-83
2021/10/22 11:19:57;;;;;;;5.17;1.60;;;;;;;;;;5092234;28;20585;-85
2021/10/22 11:22:44;;;;;;;4.07;1.60;;;;;;;;;;5092266;28;20247;-85
2021/10/22 11:25:30;;;;;;;9.27;1.57;;;;;;;;;;5092419;28;20204;-85
2021/10/22 11:28:17;;;;;;;5.00;1.60;;;;;;;;;;5092273;28;20271;-85
2021/10/22 11:31:02;;;;;;;8.00;1.70;;;;;;;;;;5092225;28;20282;-84
2021/10/22 11:33:47;;;;;;;3.73;1.70;;;;;;;;;;5092407;28;20653;-84
2021/10/22 11:36:33;;;;;;;5.10;1.40;;;;;;;;;;5092276;28;20643;-84
2021/10/22 11:39:23;;;;;;;4.60;1.63;;;;;;;;;;5092217;28;20193;-83
2021/10/22 11:42:19;;;;;;;4.87;1.63;;;;;;;;;;5092126;28;20186;-86
2021/10/22 11:45:07;;;;;;;3.10;1.20;;;;;;;;;;5091350;28;20291;-88
2021/10/22 11:47:55;;;;;;;4.93;1.77;;;;;;;;;;5091686;28;20189;-84
2021/10/22 11:50:41;;;;;;;2.70;1.60;;;;;;;;;;5091273;28;20228;-84
2021/10/22 11:53:26;;;;;;;6.33;1.43;;;;;;;;;;5090720;28;20371;-86
2021/10/22 11:56:13;;;;;;;5.23;1.50;;;;;;;;;;5091279;28;20256;-85
2021/10/22 11:58:58;;;;;;;6.10;1.57;;;;;;;;;;5091035;28;20184;-85
2021/10/22 12:01:43;;;;;;;3.77;1.40;;;;;;;;;;5090889;28;20282;-85
2021/10/22 12:04:28;;;;;;;4.27;1.40;;;;;;;;;;5090768;28;20649;-84
2021/10/22 12:07:13;;;;;;;5.53;1.60;;;;;;;;;;5091069;28;20189;-86
2021/10/22 12:09:58;;;;;;;2.27;1.57;;;;;;;;;;5093112;28;20316;-84
2021/10/22 12:12:46;;;;;;;2.53;1.50;;;;;;;;;;5095017;28;20274;-87
2021/10/22 12:15:32;;;;;;;6.97;1.80;;;;;;;;;;5096044;28;20185;-85
2021/10/22 12:18:17;;;;;;;4.67;1.97;;;;;;;;;;5095482;28;20185;-87
2021/10/22 12:21:03;;;;;;;4.60;1.57;;;;;;;;;;5094788;28;20207;-86
2021/10/22 12:23:55;;;;;;;6.37;2.27;;;;;;;;;;5095881;28;20220;-88
2021/10/22 12:26:40;;;;;;;4.20;1.50;;;;;;;;;;5095475;28;20193;-88
2021/10/22 12:29:28;;;;;;;3.67;1.30;;;;;;;;;;5095355;28;20308;-85
2021/10/22 12:32:25;;;;;;;4.97;1.40;;;;;;;;;;5095331;28;20180;-86
2021/10/22 12:35:21;;;;;;;5.10;1.20;;;;;;;;;;5095666;28;20784;-84
2021/10/22 12:38:08;;;;;;;3.20;1.40;;;;;;;;;;5096331;28;20247;-87
2021/10/22 12:40:55;;;;;;;6.20;1.40;;;;;;;;;;5095770;28;20212;-84
2021/10/22 12:43:40;;;;;;;4.37;1.70;;;;;;;;;;5095254;28;20180;-87
2021/10/22 12:46:29;;;;;;;3.97;1.17;;;;;;;;;;5095484;28;20234;-85
2021/10/22 12:49:14;;;;;;;5.63;1.60;;;;;;;;;;5095306;28;20189;-89
2021/10/22 12:52:00;;;;;;;2.50;1.50;;;;;;;;;;5095584;28;20719;-87
2021/10/22 12:54:46;;;;;;;2.60;1.53;;;;;;;;;;5055058;28;20658;-88
2021/10/22 12:57:31;;;;;;;6.33;1.63;;;;;;;;;;5055203;28;20285;-90
2021/10/22 13:00:22;;;;;;;2.00;1.60;;;;;;;;;;5055702;28;20562;-89
2021/10/22 13:03:09;;;;;;;4.57;1.60;;;;;;;;;;5055432;28;20203;-90
2021/10/22 13:05:54;;;;;;;3.80;1.50;;;;;;;;;;5055342;28;20258;-89
2021/10/22 13:08:47;;;;;;;3.67;1.43;;;;;;;;;;5054960;28;20229;-88
2021/10/22 13:12:00;;;;;;;5.03;1.70;;;;;;;;;;5055133;28;20190;-84
2021/10/22 13:15:05;;;;;;;3.90;1.50;;;;;;;;;;5055303;28;20670;-83
2021/10/22 13:20:55;;;;;;;5.50;1.67;;;;;;;;;;5053450;28;20796;-81
2021/10/22 13:23:40;;;;;;;3.50;1.80;;;;;;;;;;5054402;28;20187;-82
2021/10/22 13:26:25;;;;;;;2.30;1.30;;;;;;;;;;5054095;28;20622;-81
2021/10/22 13:29:13;;;;;;;3.53;1.40;;;;;;;;;;5054498;28;20190;-82
2021/10/22 13:31:58;;;;;;;3.90;1.93;;;;;;;;;;5054022;28;20701;-83
2021/10/22 13:34:44;;;;;;;1.53;1.20;;;;;;;;;;5053709;28;20550;-82
2021/10/22 13:37:31;;;;;;;2.00;1.30;;;;;;;;;;5054280;28;20548;-81
2021/10/22 13:40:17;;;;;;;2.90;1.10;;;;;;;;;;5054184;28;20191;-80
2021/10/22 13:43:02;;;;;;;3.57;1.20;;;;;;;;;;5054118;28;20182;-82
2021/10/22 13:45:47;;;;;;;2.43;1.10;;;;;;;;;;5054596;28;20195;-82
2021/10/22 13:48:33;;;;;;;3.53;1.37;;;;;;;;;;5054213;28;20198;-81
2021/10/22 13:51:18;;;;;;;3.37;1.40;;;;;;;;;;5054175;28;20261;-82
2021/10/22 13:54:04;;;;;;;3.77;1.37;;;;;;;;;;5087824;28;20229;-82
2021/10/22 13:56:49;;;;;;;2.13;1.70;;;;;;;;;;5093527;28;20205;-81
2021/10/22 13:59:37;;;;;;;4.43;1.43;;;;;;;;;;5093748;28;20189;-81
2021/10/22 14:02:22;;;;;;;2.00;1.17;;;;;;;;;;5093412;28;20274;-82
2021/10/22 14:05:07;;;;;;;2.93;1.23;;;;;;;;;;5093607;28;20236;-82
2021/10/22 14:07:52;;;;;;;3.70;1.43;;;;;;;;;;5093810;28;20193;-82
2021/10/22 14:10:43;;;;;;;4.13;1.57;;;;;;;;;;5093429;28;20263;-82
2021/10/22 14:13:34;;;;;;;3.87;1.07;;;;;;;;;;5093866;28;20193;-82
2021/10/22 14:16:28;;;;;;;2.30;1.50;;;;;;;;;;5094656;28;20232;-84
2021/10/22 14:31:38;;;;;;;6.73;1.80;;;;;;;;;;5094425;28;20180;-87
2021/10/22 14:34:23;;;;;;;2.63;1.20;;;;;;;;;;5092957;28;20192;-90
2021/10/22 14:37:09;;;;;;;4.13;1.40;;;;;;;;;;5094176;28;20573;-84
2021/10/22 14:39:54;;;;;;;2.27;1.60;;;;;;;;;;5093848;28;20333;-87
2021/10/22 14:42:39;;;;;;;1.80;0.90;;;;;;;;;;5093579;28;20205;-83
2021/10/22 14:45:36;;;;;;;4.47;1.30;;;;;;;;;;5093718;28;20263;-87
2021/10/22 14:48:22;;;;;;;2.37;1.37;;;;;;;;;;5093733;28;20752;-89
2021/10/22 14:51:08;;;;;;;5.77;1.40;;;;;;;;;;5093263;28;20704;-86
2021/10/22 14:53:58;;;;;;;3.33;1.30;;;;;;;;;;5093135;28;20244;-86
2021/10/22 14:56:44;;;;;;;5.47;1.40;;;;;;;;;;5093986;28;20209;-88
2021/10/22 14:59:32;;;;;;;2.83;1.17;;;;;;;;;;5093787;28;20181;-88
2021/10/22 15:02:18;;;;;;;2.57;1.37;;;;;;;;;;5093492;28;20225;-85
2021/10/22 15:05:03;;;;;;;1.30;1.20;;;;;;;;;;5093177;28;20193;-88
2021/10/22 15:07:48;;;;;;;2.57;1.33;;;;;;;;;;5093156;28;20189;-87
2021/10/22 15:10:34;;;;;;;4.97;1.60;;;;;;;;;;5093940;28;20546;-87
2021/10/22 15:13:20;;;;;;;2.00;1.30;;;;;;;;;;5093689;28;20197;-89
2021/10/22 15:16:05;;;;;;;4.37;1.07;;;;;;;;;;5096963;28;20189;-92
2021/10/22 15:18:52;;;;;;;4.67;1.63;;;;;;;;;;5093600;28;20181;-87
2021/10/22 15:21:39;;;;;;;4.23;1.60;;;;;;;;;;5093405;28;20295;-87
2021/10/22 15:24:24;;;;;;;1.57;1.27;;;;;;;;;;5092502;28;20177;-86
2021/10/22 15:27:09;;;;;;;5.80;2.27;;;;;;;;;;5094123;28;20201;-86
2021/10/22 15:29:54;;;;;;;2.33;1.30;;;;;;;;;;5111479;28;20246;-87
2021/10/22 15:32:40;;;;;;;10.33;1.27;;;;;;;;;;5112158;28;20188;-86
2021/10/22 15:35:27;;;;;;;2.17;1.40;;;;;;;;;;5110161;28;20187;-86
2021/10/22 15:38:12;;;;;;;7.60;1.30;;;;;;;;;;5108191;28;20212;-86
2021/10/22 15:40:57;;;;;;;5.57;1.37;;;;;;;;;;5112398;28;20183;-88
2021/10/22 15:43:42;;;;;;;2.07;1.33;;;;;;;;;;5112130;28;20196;-89
2021/10/22 15:46:27;;;;;;;1.20;1.07;;;;;;;;;;5113343;28;20201;-86
2021/10/22 15:49:12;;;;;;;2.23;1.30;;;;;;;;;;5112824;28;20184;-87
2021/10/22 15:51:59;;;;;;;2.10;1.20;;;;;;;;;;5112680;28;20655;-89
2021/10/22 15:54:50;;;;;;;3.20;1.00;;;;;;;;;;5072884;28;20206;-89
2021/10/22 15:57:36;;;;;;;4.23;1.40;;;;;;;;;;5072868;28;20618;-86
2021/10/22 16:00:24;;;;;;;1.30;1.13;;;;;;;;;;5073246;28;20181;-92
2021/10/22 16:03:10;;;;;;;3.80;1.10;;;;;;;;;;5072560;28;20221;-87
2021/10/22 16:06:00;;;;;;;4.47;1.50;;;;;;;;;;5072997;28;20190;-89
2021/10/22 16:08:48;;;;;;;8.40;1.47;;;;;;;;;;5072041;28;20213;-88
2021/10/22 16:11:41;;;;;;;1.13;1.03;;;;;;;;;;5072546;28;20194;-89
2021/10/22 16:17:29;;;;;;;2.13;1.30;;;;;;;;;;5073482;28;20181;-90
2021/10/22 16:20:14;;;;;;;3.60;1.40;;;;;;;;;;5072100;28;20189;-89
2021/10/22 16:23:00;;;;;;;3.37;1.60;;;;;;;;;;5072704;28;20384;-89
2021/10/22 16:25:46;;;;;;;4.67;1.37;;;;;;;;;;5071821;28;20661;-87
2021/10/22 16:28:32;;;;;;;3.97;1.40;;;;;;;;;;5071963;28;20260;-86
2021/10/22 16:31:18;;;;;;;3.33;1.40;;;;;;;;;;5071802;28;20550;-84
2021/10/22 16:37:06;;;;;;;3.37;1.40;;;;;;;;;;5071109;28;20182;-83
2021/10/22 16:39:51;;;;;;;7.03;1.70;;;;;;;;;;5071179;28;20268;-88
2021/10/22 16:42:40;;;;;;;7.03;1.50;;;;;;;;;;5070747;28;20731;-86
2021/10/22 16:45:25;;;;;;;5.47;1.70;;;;;;;;;;5070989;28;20193;-84
2021/10/22 16:48:10;;;;;;;7.23;1.60;;;;;;;;;;5070844;28;20186;-85
2021/10/22 16:50:55;;;;;;;4.13;1.60;;;;;;;;;;5070802;28;20221;-85
2021/10/22 16:53:40;;;;;;;3.87;1.50;;;;;;;;;;5098732;28;20227;-85
2021/10/22 16:56:28;;;;;;;3.47;1.10;;;;;;;;;;5112607;28;20528;-86
2021/10/22 16:59:18;;;;;;;2.83;1.43;;;;;;;;;;5115280;28;20192;-86
2021/10/22 17:02:04;;;;;;;3.00;1.40;;;;;;;;;;5115319;28;20567;-85